createdAt,value
2022-11-07T00:01:36.237Z,4.32
2022-11-07T00:04:03.125Z,3.60
2022-11-07T00:06:30.192Z,3.30
2022-11-07T00:08:58.911Z,3.10
2022-11-07T00:11:25.542Z,2.72
2022-11-07T00:13:52.433Z,2.67
2022-11-07T00:16:19.118Z,2.40
2022-11-07T00:18:45.865Z,2.55
2022-11-07T00:21:12.538Z,2.53
2022-11-07T00:23:42.686Z,2.67
2022-11-07T00:26:12.472Z,2.67
2022-11-07T00:28:42.092Z,2.30
2022-11-07T00:31:10.804Z,2.85
2022-11-07T00:33:37.662Z,2.90
2022-11-07T00:36:05.063Z,2.75
2022-11-07T00:38:32.248Z,2.55
2022-11-07T00:41:04.660Z,2.58
2022-11-07T00:43:31.926Z,2.90
2022-11-07T00:46:04.509Z,2.78
2022-11-07T00:48:31.892Z,3.10
2022-11-07T00:51:05.622Z,3.25
2022-11-07T00:53:32.498Z,2.83
2022-11-07T00:56:03.523Z,2.97
2022-11-07T00:58:30.202Z,2.33
2022-11-07T01:00:56.900Z,3.22
2022-11-07T01:03:42.105Z,2.50
2022-11-07T01:06:09.213Z,2.38
2022-11-07T01:08:36.014Z,2.72
2022-11-07T01:11:07.097Z,3.13
2022-11-07T01:13:34.211Z,2.47
2022-11-07T01:16:01.102Z,3.05
2022-11-07T01:18:28.128Z,2.70
2022-11-07T01:20:54.903Z,2.80
2022-11-07T01:23:23.038Z,2.58
2022-11-07T01:25:49.781Z,2.22
2022-11-07T01:28:16.455Z,2.60
2022-11-07T01:30:44.960Z,2.60
2022-11-07T01:33:13.155Z,3.38
2022-11-07T01:35:40.645Z,2.88
2022-11-07T01:38:07.431Z,3.33
2022-11-07T01:40:54.274Z,2.53
2022-11-07T01:43:20.912Z,3.00
2022-11-07T01:45:47.785Z,2.63
2022-11-07T01:48:14.522Z,2.78
2022-11-07T01:50:41.195Z,2.83
2022-11-07T01:53:08.114Z,3.20
2022-11-07T01:55:35.969Z,3.08
2022-11-07T01:58:07.280Z,2.70
2022-11-07T02:00:35.701Z,2.95
2022-11-07T02:03:12.956Z,2.58
2022-11-07T02:06:09.728Z,2.42
2022-11-07T02:08:39.143Z,2.97
2022-11-07T02:11:06.519Z,2.60
2022-11-07T02:13:33.283Z,3.30
2022-11-07T02:16:05.694Z,3.40
2022-11-07T02:18:36.584Z,3.40
2022-11-07T02:21:33.811Z,3.25
2022-11-07T02:24:09.759Z,3.45
2022-11-07T02:26:38.333Z,3.03
2022-11-07T02:29:09.218Z,2.80
2022-11-07T02:31:35.909Z,2.65
2022-11-07T02:34:02.684Z,3.20
2022-11-07T02:36:29.751Z,2.35
2022-11-07T02:38:58.879Z,2.58
2022-11-07T02:41:29.499Z,2.10
2022-11-07T02:44:04.676Z,2.38
2022-11-07T02:46:32.791Z,2.97
2022-11-07T02:49:01.274Z,2.60
2022-11-07T02:51:28.338Z,2.85
2022-11-07T02:53:55.172Z,3.17
2022-11-07T02:56:22.953Z,2.75
2022-11-07T02:58:50.023Z,3.60
2022-11-07T03:01:16.830Z,2.88
2022-11-07T03:03:45.436Z,2.53
2022-11-07T03:06:16.442Z,3.88
2022-11-07T03:08:43.369Z,2.53
2022-11-07T03:11:11.523Z,3.47
2022-11-07T03:13:38.552Z,2.60
2022-11-07T03:16:09.383Z,3.28
2022-11-07T03:18:36.555Z,2.75
2022-11-07T03:21:04.721Z,2.75
2022-11-07T03:23:31.931Z,2.78
2022-11-07T03:25:58.749Z,3.38
2022-11-07T03:28:25.415Z,3.08
2022-11-07T03:30:52.729Z,3.53
2022-11-07T03:33:19.609Z,3.35
2022-11-07T03:35:46.549Z,3.42
2022-11-07T03:38:13.446Z,3.20
2022-11-07T03:40:40.206Z,3.20
2022-11-07T03:43:06.871Z,3.97
2022-11-07T03:45:33.525Z,3.25
2022-11-07T03:48:00.124Z,3.65
2022-11-07T03:50:26.911Z,3.80
2022-11-07T03:52:53.645Z,2.95
2022-11-07T03:55:20.275Z,2.85
2022-11-07T03:57:47.397Z,2.50
2022-11-07T04:00:16.077Z,2.83
2022-11-07T04:02:43.902Z,2.35
2022-11-07T04:05:12.341Z,4.72
2022-11-07T04:07:39.106Z,2.63
2022-11-07T04:10:06.250Z,2.65
2022-11-07T04:12:51.545Z,3.53
2022-11-07T04:15:36.697Z,2.22
2022-11-07T04:18:03.632Z,2.10
2022-11-07T04:20:30.313Z,2.80
2022-11-07T04:22:56.986Z,2.63
2022-11-07T04:25:43.571Z,2.03
2022-11-07T04:28:10.262Z,2.65
2022-11-07T04:30:36.977Z,3.10
2022-11-07T04:33:03.921Z,2.75
2022-11-07T04:35:32.933Z,2.45
2022-11-07T04:38:01.176Z,2.50
2022-11-07T04:40:29.405Z,2.83
2022-11-07T04:42:56.882Z,2.78
2022-11-07T04:45:23.793Z,2.42
2022-11-07T04:47:50.465Z,2.50
2022-11-07T04:50:19.201Z,2.20
2022-11-07T04:52:47.122Z,2.60
2022-11-07T04:55:20.065Z,3.72
2022-11-07T04:57:46.723Z,4.00
2022-11-07T05:00:13.947Z,2.90
2022-11-07T05:02:40.631Z,2.75
2022-11-07T05:05:07.751Z,2.60
2022-11-07T05:07:34.381Z,2.65
2022-11-07T05:10:01.046Z,3.03
2022-11-07T05:12:30.825Z,3.30
2022-11-07T05:14:57.621Z,3.15
2022-11-07T05:17:27.957Z,3.40
2022-11-07T05:19:55.157Z,3.40
2022-11-07T05:22:40.240Z,3.00
2022-11-07T05:25:07.521Z,2.85
2022-11-07T05:27:34.203Z,3.15
2022-11-07T05:30:00.892Z,2.40
2022-11-07T05:32:27.932Z,2.35
2022-11-07T05:34:54.660Z,2.10
2022-11-07T05:37:21.317Z,2.03
2022-11-07T05:39:52.361Z,2.10
2022-11-07T05:42:21.548Z,3.72
2022-11-07T05:44:48.440Z,1.85
2022-11-07T05:47:15.502Z,2.00
2022-11-07T05:49:42.206Z,2.65
2022-11-07T05:52:09.085Z,1.95
2022-11-07T05:54:36.042Z,1.85
2022-11-07T05:57:02.874Z,1.90
2022-11-07T05:59:29.532Z,2.08
2022-11-07T06:01:56.308Z,2.40
2022-11-07T06:04:23.307Z,1.90
2022-11-07T06:06:50.021Z,3.15
2022-11-07T06:09:16.766Z,2.17
2022-11-07T06:11:43.480Z,2.10
2022-11-07T06:14:10.240Z,1.73
2022-11-07T06:16:40.028Z,1.95
2022-11-07T06:19:06.689Z,1.90
2022-11-07T06:21:34.987Z,1.88
2022-11-07T06:24:01.661Z,3.13
2022-11-07T06:26:28.446Z,1.90
2022-11-07T06:28:55.150Z,2.05
2022-11-07T06:31:22.467Z,1.60
2022-11-07T06:33:52.584Z,2.00
2022-11-07T06:36:19.592Z,1.73
2022-11-07T06:38:46.298Z,2.22
2022-11-07T06:41:14.685Z,1.80
2022-11-07T06:43:41.654Z,2.15
2022-11-07T06:46:11.469Z,2.00
2022-11-07T06:48:38.908Z,1.70
2022-11-07T06:51:07.015Z,1.95
2022-11-07T06:53:34.006Z,2.00
2022-11-07T06:56:04.918Z,1.60
2022-11-07T06:58:31.693Z,1.77
2022-11-07T07:01:03.185Z,2.10
2022-11-07T07:03:30.440Z,1.67
2022-11-07T07:06:02.392Z,2.10
2022-11-07T07:08:29.744Z,2.10
2022-11-07T07:10:56.451Z,1.88
2022-11-07T07:13:23.233Z,1.90
2022-11-07T07:15:58.021Z,1.80
2022-11-07T07:18:26.088Z,1.95
2022-11-07T07:20:55.776Z,1.75
2022-11-07T07:23:22.556Z,2.38
2022-11-07T07:25:49.537Z,1.90
2022-11-07T07:28:16.269Z,2.03
2022-11-07T07:30:47.183Z,1.88
2022-11-07T07:33:17.552Z,2.10
2022-11-07T07:35:44.642Z,1.55
2022-11-07T07:38:13.768Z,1.98
2022-11-07T07:40:40.821Z,2.22
2022-11-07T07:43:07.697Z,1.80
2022-11-07T07:45:34.387Z,1.90
2022-11-07T07:48:02.704Z,1.67
2022-11-07T07:50:29.710Z,2.08
2022-11-07T07:52:57.593Z,2.05
2022-11-07T07:55:24.811Z,2.03
2022-11-07T07:57:51.751Z,2.10
2022-11-07T08:00:18.806Z,1.95
2022-11-07T08:02:45.804Z,2.53
2022-11-07T08:15:57.749Z,2.03
2022-11-07T08:23:50.452Z,1.90
2022-11-07T08:34:20.419Z,2.40
2022-11-07T08:36:47.196Z,2.35
2022-11-07T08:39:15.204Z,1.70
2022-11-07T08:41:44.276Z,1.90
2022-11-07T08:44:11.975Z,1.92
2022-11-07T08:46:41.308Z,2.08
2022-11-07T08:49:08.452Z,1.73
2022-11-07T08:59:38.065Z,1.40
2022-11-07T09:07:35.802Z,2.17
2022-11-07T09:15:26.844Z,2.67
2022-11-07T09:20:37.799Z,3.60
2022-11-07T09:25:49.173Z,3.00
2022-11-07T09:28:16.505Z,3.20
2022-11-07T09:30:43.568Z,2.97
2022-11-07T09:33:10.669Z,4.15
2022-11-07T09:35:37.513Z,4.53
2022-11-07T09:38:06.436Z,2.92
2022-11-07T09:41:06.898Z,3.45
2022-11-07T09:43:56.884Z,6.45
2022-11-07T09:47:01.039Z,3.53
2022-11-07T09:49:44.206Z,4.95
2022-11-07T09:52:44.312Z,3.58
2022-11-07T09:55:23.514Z,3.80
2022-11-07T09:57:54.576Z,3.20
2022-11-07T10:00:23.517Z,2.67
2022-11-07T10:02:54.698Z,5.05
2022-11-07T10:05:46.445Z,4.68
2022-11-07T10:08:19.396Z,4.15
2022-11-07T10:11:21.666Z,3.22
2022-11-07T10:14:01.782Z,4.43
2022-11-07T10:16:48.215Z,5.50
2022-11-07T10:19:27.848Z,3.95
2022-11-07T10:22:06.821Z,3.33
2022-11-07T10:24:58.577Z,4.40
2022-11-07T10:27:27.742Z,4.30
2022-11-07T10:29:56.337Z,4.32
2022-11-07T10:33:00.401Z,4.20
2022-11-07T10:38:40.694Z,3.50
2022-11-07T10:41:30.410Z,3.25
2022-11-07T10:44:02.826Z,3.72
2022-11-07T10:46:41.124Z,5.47
2022-11-07T10:50:11.639Z,3.65
2022-11-07T10:52:42.923Z,2.92
2022-11-07T10:55:16.928Z,3.22
2022-11-07T10:57:54.165Z,3.03
2022-11-07T11:00:30.162Z,3.33
2022-11-07T11:02:58.159Z,3.03
2022-11-07T11:05:31.339Z,4.15
2022-11-07T11:10:42.454Z,3.50
2022-11-07T11:13:36.901Z,3.65
2022-11-07T11:16:21.395Z,2.80
2022-11-07T11:18:58.628Z,2.15
2022-11-07T11:21:26.873Z,2.35
2022-11-07T11:23:56.039Z,3.63
2022-11-07T11:26:33.525Z,2.15
2022-11-07T11:29:15.118Z,2.45
2022-11-07T11:31:49.948Z,2.38
2022-11-07T11:34:20.207Z,2.72
2022-11-07T11:37:27.916Z,2.65
2022-11-07T11:40:03.080Z,3.25
2022-11-07T11:42:56.122Z,2.50
2022-11-07T11:45:32.152Z,3.50
2022-11-07T11:48:12.090Z,3.30
2022-11-07T11:50:49.011Z,3.67
2022-11-07T11:53:19.888Z,4.95
2022-11-07T11:56:02.512Z,4.60
2022-11-07T11:59:01.490Z,4.60
2022-11-07T12:02:00.996Z,3.60
2022-11-07T12:04:28.100Z,3.90
2022-11-07T12:10:16.815Z,3.97
2022-11-07T12:13:20.006Z,4.70
2022-11-07T12:15:50.228Z,4.75
2022-11-07T12:18:50.083Z,4.78
2022-11-07T12:21:33.591Z,4.25
2022-11-07T12:27:14.782Z,4.30
2022-11-07T12:29:54.095Z,4.22
2022-11-07T12:32:40.012Z,4.07
2022-11-07T12:35:19.208Z,4.70
2022-11-07T12:37:46.933Z,3.35
2022-11-07T12:40:49.078Z,3.90
2022-11-07T13:00:36.788Z,3.67
2022-11-07T13:03:31.841Z,4.80
2022-11-07T13:06:37.394Z,4.53
2022-11-07T13:09:23.119Z,4.50
2022-11-07T13:12:08.011Z,4.63
2022-11-07T13:14:40.172Z,4.88
2022-11-07T13:17:20.680Z,5.68
2022-11-07T13:20:02.522Z,4.07
2022-11-07T13:22:32.305Z,3.75
2022-11-07T13:25:06.152Z,3.83
2022-11-07T13:28:04.672Z,3.38
2022-11-07T13:30:31.354Z,4.43
2022-11-07T13:33:00.837Z,3.88
2022-11-07T13:35:38.776Z,3.28
2022-11-07T13:38:18.467Z,2.95
2022-11-07T13:40:58.580Z,4.45
2022-11-07T13:43:42.101Z,4.95
2022-11-07T13:48:48.470Z,5.30
2022-11-07T13:51:21.293Z,4.45
2022-11-07T13:53:47.902Z,4.70
2022-11-07T13:56:28.857Z,4.55
2022-11-07T13:58:55.898Z,4.40
2022-11-07T14:01:22.928Z,3.13
2022-11-07T14:03:49.766Z,4.95
2022-11-07T14:06:17.568Z,3.72
2022-11-07T14:08:47.213Z,4.35
2022-11-07T14:11:19.581Z,4.03
2022-11-07T14:13:53.204Z,4.60
2022-11-07T14:16:23.997Z,5.80
2022-11-07T14:19:15.706Z,3.83
2022-11-07T14:21:45.834Z,3.55
2022-11-07T14:24:26.218Z,3.90
2022-11-07T14:27:04.564Z,3.58
2022-11-07T14:29:31.705Z,4.00
2022-11-07T14:32:02.614Z,4.55
2022-11-07T14:34:31.624Z,4.57
2022-11-07T14:39:42.519Z,5.38
2022-11-07T14:42:15.686Z,3.80
2022-11-07T14:47:32.251Z,4.82
2022-11-07T14:50:01.826Z,3.17
2022-11-07T14:52:41.587Z,3.20
2022-11-07T14:55:31.773Z,4.88
2022-11-07T14:58:01.461Z,3.30
2022-11-07T15:00:30.652Z,3.20
2022-11-07T15:03:00.090Z,3.70
2022-11-07T15:05:36.648Z,3.75
2022-11-07T15:08:03.695Z,3.60
2022-11-07T15:10:41.944Z,3.58
2022-11-07T15:13:27.086Z,5.43
2022-11-07T15:16:16.490Z,4.97
2022-11-07T15:18:46.403Z,4.93
2022-11-07T15:21:56.871Z,5.25
2022-11-07T15:27:14.324Z,6.70
2022-11-07T15:30:00.257Z,5.85
2022-11-07T15:32:35.941Z,6.25
2022-11-07T15:35:42.296Z,6.05
2022-11-07T15:38:02.531Z,5.63
2022-11-07T15:40:30.127Z,5.00
2022-11-07T15:42:58.916Z,6.70
2022-11-07T15:45:26.397Z,5.75
2022-11-07T15:47:56.265Z,4.93
2022-11-07T15:50:27.491Z,6.15
2022-11-07T15:52:55.705Z,5.28
2022-11-07T15:55:33.000Z,5.15
2022-11-07T15:58:00.350Z,4.88
2022-11-07T16:00:27.821Z,4.65
2022-11-07T16:03:00.821Z,5.82
2022-11-07T16:05:28.764Z,4.55
2022-11-07T16:07:56.490Z,4.90
2022-11-07T16:10:26.297Z,4.43
2022-11-07T16:12:54.589Z,5.03
2022-11-07T17:17:42.509Z,3.88
2022-11-07T17:20:49.041Z,2.78
2022-11-07T17:23:09.161Z,3.28
2022-11-07T17:25:38.555Z,3.40
2022-11-07T17:28:06.849Z,3.10
2022-11-07T17:30:33.935Z,3.33
2022-11-07T17:33:02.715Z,2.40
2022-11-07T17:35:33.056Z,3.13
2022-11-07T17:38:00.245Z,3.38
2022-11-07T17:40:29.921Z,3.08
2022-11-07T17:42:57.567Z,3.55
2022-11-07T17:45:25.343Z,2.67
2022-11-07T17:47:52.778Z,2.15
2022-11-07T17:50:21.703Z,2.95
2022-11-07T17:52:48.385Z,4.05
2022-11-07T17:55:15.297Z,3.40
2022-11-07T17:57:43.530Z,3.72
2022-11-07T18:00:14.453Z,3.47
2022-11-07T18:02:41.424Z,3.45
2022-11-07T18:05:13.260Z,4.53
2022-11-07T18:07:41.008Z,5.45
2022-11-07T18:10:08.586Z,5.90
2022-11-07T18:12:35.365Z,4.95
2022-11-07T18:15:02.133Z,5.85
2022-11-07T18:17:36.615Z,5.75
2022-11-07T18:20:05.083Z,4.45
2022-11-07T18:22:32.652Z,4.35
2022-11-07T18:24:59.387Z,5.57
2022-11-07T18:27:26.326Z,4.43
2022-11-07T18:29:54.625Z,6.22
2022-11-07T18:32:21.406Z,4.43
2022-11-07T18:34:48.371Z,4.95
2022-11-07T18:37:15.160Z,4.90
2022-11-07T18:39:41.895Z,5.78
2022-11-07T18:42:08.774Z,6.80
2022-11-07T18:44:35.541Z,6.70
2022-11-07T18:47:02.809Z,6.40
2022-11-07T18:49:30.274Z,6.53
2022-11-07T18:51:57.022Z,7.60
2022-11-07T18:54:25.963Z,7.75
2022-11-07T18:56:52.864Z,7.55
2022-11-07T18:59:22.889Z,7.40
2022-11-07T19:01:49.708Z,7.35
2022-11-07T19:04:19.418Z,6.53
2022-11-07T19:06:58.505Z,6.72
2022-11-07T19:09:28.641Z,6.78
2022-11-07T19:11:56.657Z,7.55
2022-11-07T19:14:23.925Z,7.65
2022-11-07T19:16:51.070Z,6.28
2022-11-07T19:19:17.824Z,6.47
2022-11-07T19:21:45.221Z,6.20
2022-11-07T19:24:12.931Z,7.03
2022-11-07T19:26:39.937Z,5.90
2022-11-07T19:29:09.348Z,5.20
2022-11-07T19:31:37.450Z,6.10
2022-11-07T19:34:05.482Z,5.95
2022-11-07T19:36:32.221Z,6.50
2022-11-07T19:38:59.021Z,6.35
2022-11-07T19:41:25.807Z,6.40
2022-11-07T19:43:52.703Z,7.15
2022-11-07T19:46:21.902Z,6.35
2022-11-07T19:48:50.003Z,6.30
2022-11-07T19:51:22.198Z,6.47
2022-11-07T19:53:55.327Z,5.85
2022-11-07T19:56:23.107Z,6.95
2022-11-07T19:58:49.969Z,5.78
2022-11-07T20:01:20.628Z,6.15
2022-11-07T20:03:49.695Z,5.97
2022-11-07T20:06:18.667Z,6.90
2022-11-07T20:08:46.384Z,7.05
2022-11-07T20:11:18.482Z,8.38
2022-11-07T20:13:45.747Z,7.03
2022-11-07T20:16:12.969Z,5.38
2022-11-07T20:18:41.460Z,8.52
2022-11-07T20:21:13.325Z,7.13
2022-11-07T20:23:41.801Z,6.20
2022-11-07T20:26:11.465Z,8.10
2022-11-07T20:28:38.284Z,6.80
2022-11-07T20:31:09.722Z,6.53
2022-11-07T20:33:36.522Z,6.28
2022-11-07T20:36:09.472Z,7.95
2022-11-07T20:38:36.774Z,6.35
2022-11-07T20:41:04.493Z,6.55
2022-11-07T20:43:32.446Z,5.30
2022-11-07T20:46:03.153Z,5.72
2022-11-07T20:48:29.900Z,7.28
2022-11-07T20:50:57.769Z,6.55
2022-11-07T20:53:24.421Z,7.80
2022-11-07T20:55:51.180Z,6.75
2022-11-07T20:58:17.926Z,7.53
2022-11-07T21:00:47.061Z,5.90
2022-11-07T21:03:15.501Z,6.88
2022-11-07T21:05:42.453Z,6.40
2022-11-07T21:08:09.236Z,8.05
2022-11-07T21:10:35.934Z,7.43
2022-11-07T21:13:02.680Z,6.93
2022-11-07T21:15:29.336Z,6.22
2022-11-07T21:17:56.085Z,6.95
2022-11-07T21:20:23.333Z,6.25
2022-11-07T21:22:50.885Z,6.35
2022-11-07T21:25:17.732Z,7.80
2022-11-07T21:27:44.676Z,7.32
2022-11-07T21:30:13.062Z,5.95
2022-11-07T21:32:40.604Z,7.00
2022-11-07T21:35:08.692Z,7.07
2022-11-07T21:37:35.967Z,6.82
2022-11-07T21:40:02.947Z,8.00
2022-11-07T21:42:29.644Z,6.18
2022-11-07T21:44:56.323Z,7.53
2022-11-07T21:47:23.036Z,7.93
2022-11-07T21:49:52.468Z,7.10
2022-11-07T21:52:19.148Z,7.72
2022-11-07T21:54:45.880Z,7.40
2022-11-07T21:57:12.599Z,7.40
2022-11-07T21:59:39.336Z,6.72
2022-11-07T22:02:06.145Z,8.45
2022-11-07T22:04:32.929Z,7.85
2022-11-07T22:06:59.634Z,7.72
2022-11-07T22:09:26.392Z,7.38
2022-11-07T22:11:53.112Z,7.35
2022-11-07T22:14:21.805Z,7.70
2022-11-07T22:16:50.027Z,7.70
2022-11-07T22:19:17.978Z,8.60
2022-11-07T22:21:44.930Z,8.32
2022-11-07T22:24:11.843Z,6.97
2022-11-07T22:26:38.840Z,6.65
2022-11-07T22:29:05.525Z,8.68
2022-11-07T22:31:32.308Z,7.32
2022-11-07T22:34:00.865Z,6.70
2022-11-07T22:36:28.555Z,8.07
2022-11-07T22:38:57.584Z,6.55
2022-11-07T22:41:25.787Z,7.88
2022-11-07T22:43:53.105Z,6.05
2022-11-07T22:46:25.649Z,7.05
2022-11-07T22:48:54.207Z,8.80
2022-11-07T22:51:25.855Z,6.68
2022-11-07T22:54:13.365Z,6.55
2022-11-07T22:56:40.792Z,9.70
2022-11-07T22:59:07.884Z,7.03
2022-11-07T23:01:37.840Z,7.00
2022-11-07T23:04:06.030Z,7.82
2022-11-07T23:06:33.142Z,8.93
2022-11-07T23:09:00.352Z,9.15
2022-11-07T23:11:45.992Z,7.90
2022-11-07T23:14:16.411Z,7.00
2022-11-07T23:16:48.676Z,8.57
2022-11-07T23:19:17.162Z,9.20
2022-11-07T23:21:44.353Z,8.30
2022-11-07T23:24:11.497Z,7.90
2022-11-07T23:26:39.248Z,8.27
2022-11-07T23:29:11.298Z,7.82
2022-11-07T23:31:43.488Z,7.73
2022-11-07T23:34:10.566Z,8.98
2022-11-07T23:36:37.724Z,8.80
2022-11-07T23:39:06.406Z,7.50
2022-11-07T23:41:33.576Z,7.97
2022-11-07T23:44:00.538Z,8.80
2022-11-07T23:46:45.749Z,8.52
2022-11-07T23:49:30.966Z,8.20
2022-11-07T23:51:57.752Z,8.95
2022-11-07T23:54:43.017Z,7.07
2022-11-07T23:57:09.743Z,8.32
2022-11-07T23:59:55.234Z,8.25
